createdAt,value
2023-05-05T00:00:18.678Z,12.84
2023-05-05T00:00:40.409Z,12.83
2023-05-05T00:01:03.221Z,12.83
2023-05-05T00:01:25.007Z,12.83
2023-05-05T00:01:46.906Z,12.82
2023-05-05T00:02:09.121Z,12.82
2023-05-05T00:02:31.187Z,12.82
2023-05-05T00:02:53.102Z,12.82
2023-05-05T00:03:15.349Z,12.82
2023-05-05T00:03:37.694Z,12.82
2023-05-05T00:03:59.649Z,12.81
2023-05-05T00:04:22.952Z,12.81
2023-05-05T00:04:44.845Z,12.80
2023-05-05T00:05:06.935Z,12.80
2023-05-05T00:05:28.674Z,12.81
2023-05-05T00:05:50.720Z,12.80
2023-05-05T00:06:12.496Z,12.80
2023-05-05T00:06:34.481Z,12.79
2023-05-05T00:06:56.183Z,12.79
2023-05-05T00:07:17.897Z,12.79
2023-05-05T00:07:39.847Z,12.79
2023-05-05T00:08:01.620Z,12.79
2023-05-05T00:08:23.607Z,12.78
2023-05-05T00:08:46.527Z,12.78
2023-05-05T00:09:08.300Z,12.78
2023-05-05T00:09:30.085Z,12.77
2023-05-05T00:09:51.870Z,12.78
2023-05-05T00:10:13.768Z,12.77
2023-05-05T00:10:35.556Z,12.77
2023-05-05T00:10:57.813Z,12.77
2023-05-05T00:11:19.624Z,12.76
2023-05-05T00:11:41.411Z,12.77
2023-05-05T00:12:03.191Z,12.77
2023-05-05T00:12:24.973Z,12.76
2023-05-05T00:12:46.738Z,12.77
2023-05-05T00:13:09.019Z,12.77
2023-05-05T00:13:31.353Z,12.76
2023-05-05T00:13:53.044Z,12.77
2023-05-05T00:14:14.934Z,12.76
2023-05-05T00:14:36.806Z,12.77
2023-05-05T00:14:58.592Z,12.78
2023-05-05T00:15:20.476Z,12.79
2023-05-05T00:15:42.675Z,12.81
2023-05-05T00:16:04.981Z,12.82
2023-05-05T00:16:27.193Z,12.84
2023-05-05T00:16:48.994Z,12.86
2023-05-05T00:17:10.956Z,12.87
2023-05-05T00:17:33.087Z,12.88
2023-05-05T00:17:54.848Z,12.91
2023-05-05T00:18:17.020Z,12.92
2023-05-05T00:18:38.734Z,12.95
2023-05-05T00:19:00.541Z,12.95
2023-05-05T00:19:22.353Z,12.96
2023-05-05T00:19:44.143Z,12.97
2023-05-05T00:20:06.756Z,12.98
2023-05-05T00:20:28.732Z,12.98
2023-05-05T00:20:50.616Z,12.98
2023-05-05T00:21:12.351Z,12.99
2023-05-05T00:21:34.086Z,12.97
2023-05-05T00:21:55.814Z,12.98
2023-05-05T00:22:17.661Z,12.97
2023-05-05T00:22:39.559Z,12.97
2023-05-05T00:23:01.549Z,12.96
2023-05-05T00:23:23.308Z,12.96
2023-05-05T00:23:45.098Z,12.95
2023-05-05T00:24:06.891Z,12.95
2023-05-05T00:24:28.672Z,12.94
2023-05-05T00:24:50.460Z,12.95
2023-05-05T00:25:12.340Z,12.94
2023-05-05T00:25:34.073Z,12.94
2023-05-05T00:25:56.108Z,12.94
2023-05-05T00:26:18.205Z,12.94
2023-05-05T00:26:41.154Z,12.93
2023-05-05T00:27:03.715Z,12.93
2023-05-05T00:27:25.602Z,12.93
2023-05-05T00:27:47.594Z,12.93
2023-05-05T00:28:09.581Z,12.92
2023-05-05T00:28:31.582Z,12.93
2023-05-05T00:28:53.827Z,12.92
2023-05-05T00:29:15.869Z,12.92
2023-05-05T00:29:37.661Z,12.91
2023-05-05T00:29:59.431Z,12.91
2023-05-05T00:30:21.218Z,12.91
2023-05-05T00:30:42.994Z,12.91
2023-05-05T00:31:05.180Z,12.91
2023-05-05T00:31:27.097Z,12.91
2023-05-05T00:31:50.905Z,12.90
2023-05-05T00:32:12.689Z,12.89
2023-05-05T00:32:34.490Z,12.90
2023-05-05T00:32:56.617Z,12.89
2023-05-05T00:33:18.562Z,12.89
2023-05-05T00:33:41.834Z,12.89
2023-05-05T00:34:03.604Z,12.88
2023-05-05T00:34:25.448Z,12.88
2023-05-05T00:34:47.190Z,12.88
2023-05-05T00:35:08.980Z,12.88
2023-05-05T00:35:30.810Z,12.87
2023-05-05T00:35:52.515Z,12.87
2023-05-05T00:36:15.022Z,12.87
2023-05-05T00:36:36.866Z,12.86
2023-05-05T00:36:58.653Z,12.86
2023-05-05T00:37:20.676Z,12.86
2023-05-05T00:37:42.630Z,12.85
2023-05-05T00:38:05.278Z,12.85
2023-05-05T00:38:27.443Z,12.84
2023-05-05T00:38:49.200Z,12.84
2023-05-05T00:39:11.008Z,12.84
2023-05-05T00:39:33.498Z,12.83
2023-05-05T00:39:55.518Z,12.82
2023-05-05T00:40:18.911Z,12.82
2023-05-05T00:40:40.680Z,12.82
2023-05-05T00:41:02.477Z,12.82
2023-05-05T00:41:24.222Z,12.81
2023-05-05T00:41:45.928Z,12.81
2023-05-05T00:42:07.726Z,12.81
2023-05-05T00:42:38.225Z,12.80
2023-05-05T00:42:59.928Z,12.79
2023-05-05T00:43:21.689Z,12.79
2023-05-05T00:43:43.559Z,12.79
2023-05-05T00:44:05.383Z,12.77
2023-05-05T00:44:37.252Z,12.77
2023-05-05T00:44:59.446Z,12.76
2023-05-05T00:45:21.341Z,12.75
2023-05-05T00:45:47.797Z,12.75
2023-05-05T00:46:13.305Z,12.75
2023-05-05T00:46:35.722Z,12.73
2023-05-05T00:46:57.574Z,12.73
2023-05-05T00:47:19.360Z,12.73
2023-05-05T00:47:45.506Z,12.72
2023-05-05T00:48:07.607Z,12.71
2023-05-05T00:48:32.391Z,12.70
2023-05-05T00:48:54.319Z,12.70
2023-05-05T00:49:16.571Z,12.70
2023-05-05T00:49:38.583Z,12.69
2023-05-05T00:50:00.451Z,12.68
2023-05-05T00:50:22.936Z,12.67
2023-05-05T00:50:45.149Z,12.66
2023-05-05T00:51:09.390Z,12.66
2023-05-05T00:51:32.103Z,12.65
2023-05-05T00:51:53.866Z,12.65
2023-05-05T00:52:15.656Z,12.65
2023-05-05T00:52:37.431Z,12.65
2023-05-05T00:53:00.857Z,12.65
2023-05-05T00:53:22.636Z,12.66
2023-05-05T00:53:45.344Z,12.67
2023-05-05T00:54:07.532Z,12.68
2023-05-05T00:54:29.529Z,12.70
2023-05-05T00:54:51.309Z,12.71
2023-05-05T00:55:13.209Z,12.72
2023-05-05T00:55:35.402Z,12.73
2023-05-05T00:55:57.174Z,12.74
2023-05-05T00:56:19.981Z,12.74
2023-05-05T00:56:41.972Z,12.75
2023-05-05T00:57:03.754Z,12.75
2023-05-05T00:57:25.541Z,12.76
2023-05-05T00:57:47.741Z,12.76
2023-05-05T00:58:10.158Z,12.76
2023-05-05T00:58:32.225Z,12.75
2023-05-05T00:58:54.110Z,12.74
2023-05-05T00:59:15.897Z,12.69
2023-05-05T00:59:37.676Z,12.73
2023-05-05T00:59:59.580Z,12.72
2023-05-05T01:00:21.660Z,12.72
2023-05-05T01:00:43.546Z,12.71
2023-05-05T01:01:05.331Z,12.70
2023-05-05T01:01:27.579Z,12.69
2023-05-05T01:01:50.577Z,12.68
2023-05-05T01:02:12.422Z,12.68
2023-05-05T01:02:34.250Z,12.66
2023-05-05T01:02:56.188Z,12.66
2023-05-05T01:03:18.114Z,12.65
2023-05-05T01:03:40.318Z,12.64
2023-05-05T01:04:02.551Z,12.64
2023-05-05T01:04:24.866Z,12.63
2023-05-05T01:04:46.666Z,12.62
2023-05-05T01:05:08.957Z,12.62
2023-05-05T01:05:33.210Z,12.61
2023-05-05T01:06:15.779Z,12.61
2023-05-05T01:06:46.618Z,12.59
2023-05-05T01:07:27.244Z,12.58
2023-05-05T01:07:55.138Z,12.56
2023-05-05T01:08:43.291Z,12.55
2023-05-05T01:09:13.074Z,12.53
2023-05-05T01:09:47.649Z,12.52
2023-05-05T01:10:19.554Z,12.51
2023-05-05T01:10:46.776Z,12.49
2023-05-05T01:11:20.838Z,12.48
2023-05-05T01:11:48.427Z,12.47
2023-05-05T01:12:14.780Z,12.46
2023-05-05T01:12:48.911Z,12.44
2023-05-05T01:13:10.752Z,12.43
2023-05-05T01:13:43.590Z,12.42
2023-05-05T01:14:18.777Z,12.41
2023-05-05T01:14:41.478Z,12.39
2023-05-05T01:15:09.917Z,12.38
2023-05-05T01:15:35.377Z,12.37
2023-05-05T01:16:15.011Z,12.36
2023-05-05T01:16:37.708Z,12.34
2023-05-05T01:17:00.278Z,12.33
2023-05-05T01:17:24.788Z,12.31
2023-05-05T01:17:49.092Z,12.30
2023-05-05T01:18:23.698Z,12.30
2023-05-05T01:18:51.745Z,12.28
2023-05-05T01:19:19.268Z,12.26
2023-05-05T01:19:41.050Z,12.26
2023-05-05T01:20:06.607Z,12.24
2023-05-05T01:20:43.473Z,12.23
2023-05-05T01:21:15.656Z,12.22
2023-05-05T01:21:38.858Z,12.21
2023-05-05T01:22:01.004Z,12.19
2023-05-05T01:22:27.545Z,12.18
2023-05-05T01:22:51.271Z,12.17
2023-05-05T01:23:14.382Z,12.17
2023-05-05T01:23:47.813Z,12.15
2023-05-05T01:24:12.381Z,12.14
2023-05-05T01:24:34.573Z,12.13
2023-05-05T01:25:02.185Z,12.12
2023-05-05T01:25:30.102Z,12.12
2023-05-05T01:26:05.862Z,12.13
2023-05-05T01:26:47.961Z,12.14
2023-05-05T01:27:37.644Z,12.16
2023-05-05T01:28:17.430Z,12.18
2023-05-05T01:28:39.701Z,12.20
2023-05-05T01:29:02.523Z,12.22
2023-05-05T01:29:24.737Z,12.23
2023-05-05T01:30:05.467Z,12.23
2023-05-05T01:30:37.069Z,12.23
2023-05-05T01:31:05.022Z,12.23
2023-05-05T01:31:32.755Z,12.23
2023-05-05T01:31:55.242Z,12.22
2023-05-05T01:32:19.742Z,12.21
2023-05-05T01:32:43.164Z,12.20
2023-05-05T01:33:06.782Z,12.19
2023-05-05T01:33:29.358Z,12.18
2023-05-05T01:33:54.109Z,12.17
2023-05-05T01:34:16.126Z,12.16
2023-05-05T01:34:58.551Z,12.15
2023-05-05T01:35:21.768Z,12.14
2023-05-05T01:35:50.912Z,12.13
2023-05-05T01:36:13.828Z,12.11
2023-05-05T01:36:36.831Z,12.11
2023-05-05T01:37:04.844Z,12.09
2023-05-05T01:37:28.081Z,12.09
2023-05-05T01:38:00.896Z,12.08
2023-05-05T01:38:23.499Z,12.06
2023-05-05T01:38:45.904Z,12.05
2023-05-05T01:39:08.602Z,12.04
2023-05-05T01:39:31.726Z,12.03
2023-05-05T01:39:56.157Z,12.02
2023-05-05T01:40:21.234Z,12.01
2023-05-05T01:41:04.523Z,11.99
2023-05-05T01:41:28.489Z,11.97
2023-05-05T01:41:50.950Z,11.96
2023-05-05T01:42:15.575Z,11.95
2023-05-05T01:42:37.754Z,11.94
2023-05-05T01:42:59.659Z,11.94
2023-05-05T01:43:21.940Z,11.93
2023-05-05T01:44:00.138Z,11.92
2023-05-05T01:44:37.209Z,11.91
2023-05-05T01:45:14.055Z,11.89
2023-05-05T01:45:37.073Z,11.89
2023-05-05T01:45:59.076Z,11.88
2023-05-05T01:46:21.897Z,11.88
2023-05-05T01:46:43.927Z,11.87
2023-05-05T01:47:06.017Z,11.87
2023-05-05T01:47:28.033Z,11.86
2023-05-05T01:47:50.012Z,11.86
2023-05-05T01:48:12.706Z,11.86
2023-05-05T01:48:34.385Z,11.86
2023-05-05T01:48:56.103Z,11.85
2023-05-05T01:49:17.973Z,11.85
2023-05-05T01:49:39.950Z,11.85
2023-05-05T01:50:01.830Z,11.84
2023-05-05T01:50:23.619Z,11.83
2023-05-05T01:50:46.858Z,11.83
2023-05-05T01:51:08.559Z,11.83
2023-05-05T01:51:30.300Z,11.82
2023-05-05T01:51:52.413Z,11.82
2023-05-05T01:52:14.784Z,11.81
2023-05-05T01:52:37.798Z,11.80
2023-05-05T01:52:59.580Z,11.79
2023-05-05T01:53:21.478Z,11.78
2023-05-05T01:53:43.869Z,11.78
2023-05-05T01:54:07.812Z,11.77
2023-05-05T01:54:29.519Z,11.77
2023-05-05T01:54:51.209Z,11.77
2023-05-05T01:55:13.067Z,11.77
2023-05-05T01:55:34.834Z,11.77
2023-05-05T01:55:56.588Z,11.78
2023-05-05T01:56:18.403Z,11.78
2023-05-05T01:56:40.605Z,11.80
2023-05-05T01:57:03.708Z,11.82
2023-05-05T01:57:25.914Z,11.83
2023-05-05T01:57:47.687Z,11.84
2023-05-05T01:58:09.679Z,11.85
2023-05-05T01:58:31.460Z,11.86
2023-05-05T01:58:53.291Z,11.87
2023-05-05T01:59:15.144Z,11.88
2023-05-05T01:59:38.042Z,11.88
2023-05-05T01:59:59.762Z,11.89
2023-05-05T02:00:21.729Z,11.90
2023-05-05T02:00:44.216Z,11.90
2023-05-05T02:01:06.035Z,11.90
2023-05-05T02:01:27.794Z,11.90
2023-05-05T02:01:49.576Z,11.90
2023-05-05T02:02:11.909Z,11.89
2023-05-05T02:02:33.855Z,11.89
2023-05-05T02:02:57.302Z,11.89
2023-05-05T02:03:19.374Z,11.89
2023-05-05T02:03:42.189Z,11.88
2023-05-05T02:04:03.976Z,11.89
2023-05-05T02:04:25.844Z,11.89
2023-05-05T02:04:47.571Z,11.88
2023-05-05T02:05:09.315Z,11.88
2023-05-05T02:05:31.320Z,11.88
2023-05-05T02:05:53.591Z,11.89
2023-05-05T02:06:15.361Z,11.89
2023-05-05T02:06:37.267Z,11.88
2023-05-05T02:06:59.050Z,11.88
2023-05-05T02:07:21.560Z,11.88
2023-05-05T02:07:43.443Z,11.89
2023-05-05T02:08:05.652Z,11.89
2023-05-05T02:08:27.418Z,11.89
2023-05-05T02:08:49.126Z,11.89
2023-05-05T02:09:12.011Z,11.90
2023-05-05T02:09:33.777Z,11.90
2023-05-05T02:09:55.886Z,11.90
2023-05-05T02:10:17.809Z,11.90
2023-05-05T02:10:43.030Z,11.90
2023-05-05T02:11:04.921Z,11.91
2023-05-05T02:11:26.912Z,11.90
2023-05-05T02:11:48.683Z,11.91
2023-05-05T02:12:10.395Z,11.91
2023-05-05T02:12:32.225Z,11.91
2023-05-05T02:12:54.102Z,11.91
2023-05-05T02:13:16.240Z,11.90
2023-05-05T02:13:38.335Z,11.90
2023-05-05T02:14:00.361Z,11.90
2023-05-05T02:14:22.308Z,11.89
2023-05-05T02:14:44.100Z,11.89
2023-05-05T02:15:06.391Z,11.89
2023-05-05T02:15:28.276Z,11.89
2023-05-05T02:15:50.064Z,11.89
2023-05-05T02:16:12.118Z,11.89
2023-05-05T02:16:34.027Z,11.89
2023-05-05T02:16:56.745Z,11.89
2023-05-05T02:17:18.533Z,11.88
2023-05-05T02:17:43.650Z,11.88
2023-05-05T02:18:05.914Z,11.88
2023-05-05T02:18:28.708Z,11.87
2023-05-05T02:18:50.477Z,11.87
2023-05-05T02:19:12.371Z,11.87
2023-05-05T02:19:36.292Z,11.86
2023-05-05T02:19:59.104Z,11.86
2023-05-05T02:20:20.884Z,11.85
2023-05-05T02:20:43.188Z,11.85
2023-05-05T02:21:05.426Z,11.84
2023-05-05T02:21:28.800Z,11.84
2023-05-05T02:21:50.704Z,11.83
2023-05-05T02:22:12.472Z,11.83
2023-05-05T02:22:34.255Z,11.84
2023-05-05T02:22:56.196Z,11.85
2023-05-05T02:23:18.023Z,11.86
2023-05-05T02:23:39.809Z,11.86
2023-05-05T02:24:01.932Z,11.87
2023-05-05T02:24:24.100Z,11.89
2023-05-05T02:24:45.866Z,11.89
2023-05-05T02:25:07.976Z,11.91
2023-05-05T02:25:32.519Z,11.91
2023-05-05T02:25:55.949Z,11.93
2023-05-05T02:26:17.676Z,11.93
2023-05-05T02:26:39.702Z,11.94
2023-05-05T02:27:02.837Z,11.93
2023-05-05T02:27:24.579Z,11.93
2023-05-05T02:27:46.717Z,11.93
2023-05-05T02:28:11.665Z,11.93
2023-05-05T02:28:40.907Z,11.92
2023-05-05T02:29:07.587Z,11.91
2023-05-05T02:29:33.300Z,11.90
2023-05-05T02:29:57.423Z,11.90
2023-05-05T02:30:19.398Z,11.89
2023-05-05T02:30:41.590Z,11.88
2023-05-05T02:31:03.857Z,11.88
2023-05-05T02:31:25.821Z,11.87
2023-05-05T02:31:49.293Z,11.87
2023-05-05T02:32:17.245Z,11.86
2023-05-05T02:32:45.576Z,11.86
2023-05-05T02:33:10.783Z,11.85
2023-05-05T02:33:33.092Z,11.84
2023-05-05T02:33:56.442Z,11.84
2023-05-05T02:34:22.810Z,11.84
2023-05-05T02:34:44.596Z,11.83
2023-05-05T02:35:14.596Z,11.82
2023-05-05T02:35:41.156Z,11.82
2023-05-05T02:36:08.703Z,11.81
2023-05-05T02:36:31.520Z,11.80
2023-05-05T02:36:58.678Z,11.79
2023-05-05T02:37:23.632Z,11.79
2023-05-05T02:37:48.792Z,11.78
2023-05-05T02:38:13.137Z,11.77
2023-05-05T02:38:35.332Z,11.76
2023-05-05T02:38:59.112Z,11.76
2023-05-05T02:39:30.978Z,11.75
2023-05-05T02:39:58.879Z,11.75
2023-05-05T02:40:25.092Z,11.74
2023-05-05T02:40:46.912Z,11.73
2023-05-05T02:41:11.705Z,11.73
2023-05-05T02:41:33.694Z,11.72
2023-05-05T02:41:57.217Z,11.72
2023-05-05T02:42:20.889Z,11.71
2023-05-05T02:42:43.410Z,11.71
2023-05-05T02:43:06.773Z,11.70
2023-05-05T02:43:28.753Z,11.69
2023-05-05T02:43:50.639Z,11.69
2023-05-05T02:44:13.763Z,11.69
2023-05-05T02:44:35.640Z,11.68
2023-05-05T02:44:58.854Z,11.68
2023-05-05T02:45:21.366Z,11.67
2023-05-05T02:45:43.612Z,11.67
2023-05-05T02:46:05.685Z,11.66
2023-05-05T02:46:27.877Z,11.66
2023-05-05T02:46:49.749Z,11.66
2023-05-05T02:47:11.916Z,11.66
2023-05-05T02:47:36.915Z,11.65
2023-05-05T02:48:02.216Z,11.65
2023-05-05T02:48:24.631Z,11.65
2023-05-05T02:48:46.834Z,11.64
2023-05-05T02:49:08.711Z,11.64
2023-05-05T02:49:30.951Z,11.64
2023-05-05T02:49:54.224Z,11.63
2023-05-05T02:50:16.022Z,11.62
2023-05-05T02:50:43.794Z,11.63
2023-05-05T02:51:10.047Z,11.62
2023-05-05T02:51:33.342Z,11.62
2023-05-05T02:51:58.307Z,11.60
2023-05-05T02:52:21.533Z,11.60
2023-05-05T02:52:43.896Z,11.59
2023-05-05T02:53:05.966Z,11.59
2023-05-05T02:53:27.892Z,11.59
2023-05-05T02:53:49.771Z,11.60
2023-05-05T02:54:11.548Z,11.60
2023-05-05T02:54:33.662Z,11.62
2023-05-05T02:54:56.352Z,11.63
2023-05-05T02:55:18.214Z,11.65
2023-05-05T02:55:43.117Z,11.66
2023-05-05T02:56:09.572Z,11.68
2023-05-05T02:56:38.327Z,11.70
2023-05-05T02:57:00.126Z,11.72
2023-05-05T02:57:23.004Z,11.73
2023-05-05T02:58:02.354Z,11.75
2023-05-05T02:58:43.802Z,11.77
2023-05-05T02:59:16.193Z,11.78
2023-05-05T02:59:39.336Z,11.78
2023-05-05T03:00:11.143Z,11.79
2023-05-05T03:00:43.977Z,11.79
2023-05-05T03:01:11.878Z,11.78
2023-05-05T03:01:36.662Z,11.78
2023-05-05T03:02:13.589Z,11.77
2023-05-05T03:02:40.646Z,11.77
2023-05-05T03:03:06.814Z,11.77
2023-05-05T03:03:29.387Z,11.76
2023-05-05T03:04:00.045Z,11.76
2023-05-05T03:04:24.738Z,11.75
2023-05-05T03:04:49.433Z,11.74
2023-05-05T03:05:13.275Z,11.75
2023-05-05T03:05:41.810Z,11.74
2023-05-05T03:06:05.833Z,11.74
2023-05-05T03:06:28.551Z,11.74
2023-05-05T03:06:51.979Z,11.74
2023-05-05T03:07:21.114Z,11.74
2023-05-05T03:07:46.881Z,11.74
2023-05-05T03:08:14.492Z,11.74
2023-05-05T03:08:36.309Z,11.75
2023-05-05T03:09:03.993Z,11.75
2023-05-05T03:09:28.133Z,11.75
2023-05-05T03:10:06.229Z,11.76
2023-05-05T03:10:30.722Z,11.76
2023-05-05T03:11:14.762Z,11.77
2023-05-05T03:11:41.092Z,11.77
2023-05-05T03:12:04.101Z,11.78
2023-05-05T03:12:31.510Z,11.79
2023-05-05T03:13:05.807Z,11.80
2023-05-05T03:13:30.929Z,11.81
2023-05-05T03:13:55.178Z,11.82
2023-05-05T03:14:21.366Z,11.82
2023-05-05T03:14:44.063Z,11.83
2023-05-05T03:15:08.294Z,11.84
2023-05-05T03:15:31.557Z,11.84
2023-05-05T03:15:54.047Z,11.85
2023-05-05T03:16:17.991Z,11.86
2023-05-05T03:16:40.886Z,11.86
2023-05-05T03:17:03.248Z,11.86
2023-05-05T03:17:25.829Z,11.87
2023-05-05T03:17:47.987Z,11.88
2023-05-05T03:18:10.969Z,11.88
2023-05-05T03:18:34.583Z,11.89
2023-05-05T03:18:57.091Z,11.90
2023-05-05T03:19:18.970Z,11.89
2023-05-05T03:19:41.783Z,11.90
2023-05-05T03:20:06.421Z,11.91
2023-05-05T03:20:29.788Z,11.92
2023-05-05T03:20:52.140Z,11.93
2023-05-05T03:21:14.261Z,11.93
2023-05-05T03:21:36.222Z,11.94
2023-05-05T03:21:58.222Z,11.94
2023-05-05T03:22:19.996Z,11.94
2023-05-05T03:22:41.781Z,11.95
2023-05-05T03:23:06.732Z,11.95
2023-05-05T03:23:28.721Z,11.95
2023-05-05T03:23:52.595Z,11.96
2023-05-05T03:24:16.277Z,11.97
2023-05-05T03:24:39.195Z,11.97
2023-05-05T03:25:03.634Z,11.98
2023-05-05T03:25:41.381Z,11.99
2023-05-05T03:26:03.162Z,12.02
2023-05-05T03:26:28.414Z,12.04
2023-05-05T03:26:50.417Z,12.06
2023-05-05T03:27:13.775Z,12.09
2023-05-05T03:27:35.508Z,12.11
2023-05-05T03:27:57.600Z,12.14
2023-05-05T03:28:19.698Z,12.16
2023-05-05T03:28:41.910Z,12.18
2023-05-05T03:29:12.569Z,12.20
2023-05-05T03:29:34.427Z,12.22
2023-05-05T03:29:56.669Z,12.24
2023-05-05T03:30:20.305Z,12.25
2023-05-05T03:30:44.271Z,12.26
2023-05-05T03:31:06.476Z,12.28
2023-05-05T03:31:29.327Z,12.29
2023-05-05T03:31:53.208Z,12.29
2023-05-05T03:32:15.095Z,12.30
2023-05-05T03:32:37.281Z,12.30
2023-05-05T03:32:59.168Z,12.30
2023-05-05T03:33:22.529Z,12.30
2023-05-05T03:33:44.931Z,12.30
2023-05-05T03:34:07.443Z,12.30
2023-05-05T03:34:35.961Z,12.30
2023-05-05T03:34:57.947Z,12.30
2023-05-05T03:35:23.827Z,12.31
2023-05-05T03:35:45.716Z,12.31
2023-05-05T03:36:08.316Z,12.31
2023-05-05T03:36:30.510Z,12.32
2023-05-05T03:36:52.606Z,12.32
2023-05-05T03:37:14.534Z,12.32
2023-05-05T03:37:36.666Z,12.33
2023-05-05T03:37:58.466Z,12.34
2023-05-05T03:38:20.254Z,12.35
2023-05-05T03:38:42.038Z,12.35
2023-05-05T03:39:04.331Z,12.36
2023-05-05T03:39:27.891Z,12.37
2023-05-05T03:39:49.740Z,12.37
2023-05-05T03:40:11.949Z,12.38
2023-05-05T03:40:43.499Z,12.40
2023-05-05T03:41:06.956Z,12.41
2023-05-05T03:41:28.857Z,12.42
2023-05-05T03:41:51.242Z,12.44
2023-05-05T03:42:13.700Z,12.45
2023-05-05T03:42:35.629Z,12.46
2023-05-05T03:42:57.351Z,12.47
2023-05-05T03:43:19.848Z,12.48
2023-05-05T03:43:42.638Z,12.50
2023-05-05T03:44:04.709Z,12.51
2023-05-05T03:44:26.803Z,12.52
2023-05-05T03:44:48.554Z,12.53
2023-05-05T03:45:10.474Z,12.54
2023-05-05T03:45:33.530Z,12.55
2023-05-05T03:45:55.583Z,12.57
2023-05-05T03:46:17.594Z,12.58
2023-05-05T03:46:39.553Z,12.60
2023-05-05T03:47:03.694Z,12.61
2023-05-05T03:47:26.741Z,12.63
2023-05-05T03:47:48.808Z,12.64
2023-05-05T03:48:10.783Z,12.65
2023-05-05T03:48:34.428Z,12.66
2023-05-05T03:48:57.389Z,12.67
2023-05-05T03:49:19.697Z,12.68
2023-05-05T03:49:42.115Z,12.70
2023-05-05T03:50:04.212Z,12.71
2023-05-05T03:50:26.091Z,12.72
2023-05-05T03:50:48.577Z,12.73
2023-05-05T03:51:10.683Z,12.74
2023-05-05T03:51:32.775Z,12.75
2023-05-05T03:51:54.667Z,12.76
2023-05-05T03:52:16.855Z,12.77
2023-05-05T03:52:38.849Z,12.78
2023-05-05T03:53:00.625Z,12.80
2023-05-05T03:53:22.517Z,12.82
2023-05-05T03:53:44.297Z,12.84
2023-05-05T03:54:06.399Z,12.86
2023-05-05T03:54:28.289Z,12.88
2023-05-05T03:54:50.063Z,12.91
2023-05-05T03:55:13.174Z,12.94
2023-05-05T03:55:35.370Z,12.97
2023-05-05T03:55:57.062Z,12.99
2023-05-05T03:56:18.856Z,13.01
2023-05-05T03:56:41.029Z,13.04
2023-05-05T03:57:03.122Z,13.06
2023-05-05T03:57:24.906Z,13.07
2023-05-05T03:57:46.794Z,13.09
2023-05-05T03:58:08.576Z,13.10
2023-05-05T03:58:31.098Z,13.11
2023-05-05T03:58:52.863Z,13.12
2023-05-05T03:59:14.650Z,13.13
2023-05-05T03:59:36.648Z,13.14
2023-05-05T03:59:58.576Z,13.15
2023-05-05T04:00:21.332Z,13.17
2023-05-05T04:00:43.009Z,13.18
2023-05-05T04:01:05.307Z,13.19
2023-05-05T04:01:29.243Z,13.20
2023-05-05T04:01:51.332Z,13.21
2023-05-05T04:02:13.051Z,13.23
2023-05-05T04:02:35.530Z,13.24
2023-05-05T04:02:57.476Z,13.26
2023-05-05T04:03:20.187Z,13.28
2023-05-05T04:03:42.359Z,13.29
2023-05-05T04:04:04.988Z,13.31
2023-05-05T04:04:26.941Z,13.32
2023-05-05T04:04:48.765Z,13.34
2023-05-05T04:05:10.679Z,13.35
2023-05-05T04:05:32.517Z,13.37
2023-05-05T04:05:54.553Z,13.39
2023-05-05T04:06:16.941Z,13.41
2023-05-05T04:06:38.725Z,13.42
2023-05-05T04:07:00.820Z,13.43
2023-05-05T04:07:23.739Z,13.46
2023-05-05T04:07:45.512Z,13.47
2023-05-05T04:08:07.396Z,13.48
2023-05-05T04:08:29.183Z,13.49
2023-05-05T04:08:50.952Z,13.51
2023-05-05T04:09:12.760Z,13.52
2023-05-05T04:09:34.549Z,13.54
2023-05-05T04:09:56.430Z,13.56
2023-05-05T04:10:18.312Z,13.58
2023-05-05T04:10:40.061Z,13.59
2023-05-05T04:11:04.758Z,13.61
2023-05-05T04:11:27.666Z,13.63
2023-05-05T04:11:49.951Z,13.64
2023-05-05T04:12:11.949Z,13.66
2023-05-05T04:12:33.899Z,13.68
2023-05-05T04:12:55.845Z,13.70
2023-05-05T04:13:17.724Z,13.71
2023-05-05T04:13:39.586Z,13.74
2023-05-05T04:14:02.610Z,13.75
2023-05-05T04:14:25.103Z,13.77
2023-05-05T04:14:46.986Z,13.79
2023-05-05T04:15:09.294Z,13.81
2023-05-05T04:15:31.097Z,13.83
2023-05-05T04:15:52.921Z,13.85
2023-05-05T04:16:14.760Z,13.87
2023-05-05T04:16:36.834Z,13.89
2023-05-05T04:16:58.614Z,13.91
2023-05-05T04:17:20.602Z,13.93
2023-05-05T04:17:43.125Z,13.95
2023-05-05T04:18:04.999Z,13.96
2023-05-05T04:18:26.928Z,13.99
2023-05-05T04:18:49.230Z,14.01
2023-05-05T04:19:13.241Z,14.02
2023-05-05T04:19:35.356Z,14.03
2023-05-05T04:19:57.597Z,14.05
2023-05-05T04:20:19.380Z,14.06
2023-05-05T04:20:41.126Z,14.08
2023-05-05T04:21:03.482Z,14.09
2023-05-05T04:21:25.351Z,14.11
2023-05-05T04:21:47.540Z,14.11
2023-05-05T04:22:09.323Z,14.12
2023-05-05T04:22:31.125Z,14.14
2023-05-05T04:22:53.200Z,14.14
2023-05-05T04:23:15.702Z,14.16
2023-05-05T04:23:37.693Z,14.16
2023-05-05T04:24:00.210Z,14.18
2023-05-05T04:24:24.976Z,14.18
2023-05-05T04:24:47.660Z,14.19
2023-05-05T04:25:09.532Z,14.21
2023-05-05T04:25:31.732Z,14.22
2023-05-05T04:25:53.611Z,14.23
2023-05-05T04:26:15.741Z,14.24
2023-05-05T04:26:37.489Z,14.25
2023-05-05T04:26:59.881Z,14.26
2023-05-05T04:27:23.410Z,14.27
2023-05-05T04:27:45.195Z,14.28
2023-05-05T04:28:06.984Z,14.28
2023-05-05T04:28:28.695Z,14.29
2023-05-05T04:28:51.377Z,14.30
2023-05-05T04:29:13.493Z,14.31
2023-05-05T04:29:35.447Z,14.32
2023-05-05T04:29:57.650Z,14.32
2023-05-05T04:30:19.640Z,14.32
2023-05-05T04:30:41.415Z,14.34
2023-05-05T04:31:05.343Z,14.34
2023-05-05T04:31:29.287Z,14.35
2023-05-05T04:31:51.338Z,14.36
2023-05-05T04:32:13.382Z,14.36
2023-05-05T04:32:35.321Z,14.37
2023-05-05T04:32:57.322Z,14.37
2023-05-05T04:33:19.424Z,14.38
2023-05-05T04:33:42.253Z,14.38
2023-05-05T04:34:04.426Z,14.39
2023-05-05T04:34:26.619Z,14.39
2023-05-05T04:34:48.612Z,14.40
2023-05-05T04:35:10.903Z,14.41
2023-05-05T04:35:32.767Z,14.41
2023-05-05T04:35:54.682Z,14.42
2023-05-05T04:36:16.668Z,14.43
2023-05-05T04:36:38.413Z,14.43
2023-05-05T04:37:00.652Z,14.44
2023-05-05T04:37:22.643Z,14.45
2023-05-05T04:37:44.621Z,14.46
2023-05-05T04:38:06.410Z,14.47
2023-05-05T04:38:28.242Z,14.47
2023-05-05T04:38:50.768Z,14.49
2023-05-05T04:39:12.673Z,14.49
2023-05-05T04:39:34.465Z,14.50
2023-05-05T04:39:56.674Z,14.51
2023-05-05T04:40:18.934Z,14.52
2023-05-05T04:40:41.458Z,14.54
2023-05-05T04:41:09.225Z,14.56
2023-05-05T04:41:32.594Z,14.58
2023-05-05T04:41:54.544Z,14.59
2023-05-05T04:42:16.277Z,14.60
2023-05-05T04:42:38.151Z,14.63
2023-05-05T04:42:59.936Z,14.64
2023-05-05T04:43:22.203Z,14.66
2023-05-05T04:43:44.322Z,14.68
2023-05-05T04:44:06.516Z,14.70
2023-05-05T04:44:28.272Z,14.71
2023-05-05T04:44:50.079Z,14.74
2023-05-05T04:45:11.972Z,14.76
2023-05-05T04:45:34.236Z,14.79
2023-05-05T04:45:56.256Z,14.81
2023-05-05T04:46:20.749Z,14.83
2023-05-05T04:46:42.534Z,14.85
2023-05-05T04:47:04.348Z,14.87
2023-05-05T04:47:26.397Z,14.88
2023-05-05T04:47:48.646Z,14.90
2023-05-05T04:48:10.785Z,14.92
2023-05-05T04:48:32.915Z,14.93
2023-05-05T04:48:54.733Z,14.95
2023-05-05T04:49:16.629Z,14.97
2023-05-05T04:49:38.708Z,14.98
2023-05-05T04:50:02.124Z,15.00
2023-05-05T04:50:24.319Z,15.03
2023-05-05T04:50:46.714Z,15.04
2023-05-05T04:51:08.396Z,15.07
2023-05-05T04:51:32.260Z,15.09
2023-05-05T04:51:54.019Z,15.13
2023-05-05T04:52:16.265Z,15.14
2023-05-05T04:52:38.102Z,15.17
2023-05-05T04:52:59.976Z,15.21
2023-05-05T04:53:21.973Z,15.23
2023-05-05T04:53:43.680Z,15.26
2023-05-05T04:54:05.849Z,15.28
2023-05-05T04:54:27.631Z,15.31
2023-05-05T04:54:49.631Z,15.34
2023-05-05T04:55:11.813Z,15.36
2023-05-05T04:55:33.595Z,15.39
2023-05-05T04:55:55.483Z,15.41
2023-05-05T04:56:17.298Z,15.43
2023-05-05T04:56:39.160Z,15.44
2023-05-05T04:57:00.936Z,15.46
2023-05-05T04:57:22.606Z,15.48
2023-05-05T04:57:44.310Z,15.50
2023-05-05T04:58:06.099Z,15.50
2023-05-05T04:58:28.285Z,15.52
2023-05-05T04:58:50.363Z,15.54
2023-05-05T04:59:12.174Z,15.55
2023-05-05T04:59:34.656Z,15.56
2023-05-05T04:59:56.446Z,15.58
2023-05-05T05:00:18.240Z,15.59
2023-05-05T05:00:40.110Z,15.60
2023-05-05T05:01:01.895Z,15.61
2023-05-05T05:01:23.757Z,15.62
2023-05-05T05:01:45.835Z,15.64
2023-05-05T05:02:07.685Z,15.65